createdAt,value
2022-10-20T00:02:12.809Z,11.95
2022-10-20T00:04:39.196Z,11.96
2022-10-20T00:07:05.611Z,12.01
2022-10-20T00:09:31.958Z,12.03
2022-10-20T00:11:58.372Z,12.00
2022-10-20T00:14:24.749Z,11.93
2022-10-20T00:16:51.161Z,12.03
2022-10-20T00:19:17.629Z,11.96
2022-10-20T00:21:44.046Z,11.97
2022-10-20T00:24:10.423Z,11.92
2022-10-20T00:26:36.884Z,11.94
2022-10-20T00:29:04.300Z,11.91
2022-10-20T00:31:31.373Z,11.91
2022-10-20T00:33:57.845Z,12.03
2022-10-20T00:36:24.427Z,11.95
2022-10-20T00:38:51.308Z,11.91
2022-10-20T00:41:21.564Z,11.98
2022-10-20T00:43:53.181Z,11.98
2022-10-20T00:46:41.354Z,11.94
2022-10-20T00:49:28.277Z,11.98
2022-10-20T00:51:54.922Z,11.98
2022-10-20T00:54:25.512Z,11.96
2022-10-20T00:56:54.711Z,12.08
2022-10-20T00:59:25.542Z,12.03
2022-10-20T01:01:52.149Z,12.00
2022-10-20T01:04:18.921Z,11.98
2022-10-20T01:06:45.413Z,11.91
2022-10-20T01:09:11.982Z,11.88
2022-10-20T01:12:03.035Z,11.94
2022-10-20T01:14:35.841Z,11.93
2022-10-20T01:17:16.589Z,12.00
2022-10-20T01:19:58.306Z,11.98
2022-10-20T01:22:37.614Z,11.96
2022-10-20T01:25:31.974Z,12.06
2022-10-20T01:28:06.754Z,11.99
2022-10-20T01:30:40.368Z,11.90
2022-10-20T01:33:41.040Z,11.89
2022-10-20T01:36:25.582Z,11.99
2022-10-20T01:38:55.974Z,11.91
2022-10-20T01:41:28.673Z,11.89
2022-10-20T01:43:56.321Z,11.88
2022-10-20T01:46:25.715Z,11.89
2022-10-20T01:48:52.379Z,11.85
2022-10-20T01:51:18.809Z,11.84
2022-10-20T01:53:45.289Z,11.90
2022-10-20T01:56:21.410Z,11.85
2022-10-20T01:58:57.772Z,11.90
2022-10-20T02:02:07.311Z,11.90
2022-10-20T02:04:48.639Z,11.88
2022-10-20T02:07:26.472Z,11.90
2022-10-20T02:10:24.153Z,11.92
2022-10-20T02:12:54.788Z,11.83
2022-10-20T02:15:24.866Z,11.81
2022-10-20T02:17:57.411Z,11.86
2022-10-20T02:20:24.433Z,11.79
2022-10-20T02:22:51.439Z,11.82
2022-10-20T02:25:18.567Z,11.83
2022-10-20T02:27:48.505Z,11.83
2022-10-20T02:30:18.589Z,11.79
2022-10-20T02:32:50.077Z,11.81
2022-10-20T02:35:26.982Z,11.87
2022-10-20T02:37:53.343Z,11.85
2022-10-20T02:40:20.458Z,11.84
2022-10-20T02:42:46.959Z,11.83
2022-10-20T02:45:13.489Z,11.90
2022-10-20T02:47:40.043Z,11.88
2022-10-20T02:50:08.066Z,11.90
2022-10-20T02:52:35.211Z,11.84
2022-10-20T02:55:01.596Z,11.86
2022-10-20T02:57:28.123Z,11.92
2022-10-20T02:59:54.520Z,11.82
2022-10-20T03:02:21.060Z,11.84
2022-10-20T03:04:47.576Z,11.87
2022-10-20T03:07:14.424Z,11.96
2022-10-20T03:09:40.966Z,11.89
2022-10-20T03:12:07.320Z,11.89
2022-10-20T03:14:33.766Z,11.88
2022-10-20T03:17:00.212Z,11.91
2022-10-20T03:19:26.945Z,11.86
2022-10-20T03:21:53.387Z,11.90
2022-10-20T03:24:19.767Z,11.88
2022-10-20T03:26:46.239Z,11.86
2022-10-20T03:29:12.629Z,11.84
2022-10-20T03:31:39.040Z,11.86
2022-10-20T03:34:05.505Z,11.89
2022-10-20T03:36:31.864Z,11.83
2022-10-20T03:38:58.270Z,11.84
2022-10-20T03:41:24.738Z,11.88
2022-10-20T03:43:51.124Z,11.88
2022-10-20T03:46:17.482Z,11.93
2022-10-20T03:48:43.872Z,11.94
2022-10-20T03:51:13.162Z,11.89
2022-10-20T03:53:39.603Z,11.89
2022-10-20T03:56:12.513Z,11.90
2022-10-20T03:58:38.992Z,11.94
2022-10-20T04:01:06.760Z,11.94
2022-10-20T04:03:33.222Z,11.97
2022-10-20T04:05:59.651Z,11.98
2022-10-20T04:08:26.025Z,11.97
2022-10-20T04:10:52.579Z,12.01
2022-10-20T04:13:18.989Z,12.00
2022-10-20T04:15:45.647Z,12.10
2022-10-20T04:18:12.106Z,12.03
2022-10-20T04:20:40.712Z,11.98
2022-10-20T04:23:10.145Z,12.06
2022-10-20T04:25:45.845Z,11.98
2022-10-20T04:28:13.729Z,12.03
2022-10-20T04:30:41.029Z,12.15
2022-10-20T04:33:07.602Z,12.06
2022-10-20T04:35:34.417Z,12.08
2022-10-20T04:38:01.157Z,12.05
2022-10-20T04:40:27.534Z,12.10
2022-10-20T04:42:54.227Z,12.17
2022-10-20T04:45:20.732Z,12.14
2022-10-20T04:47:47.798Z,11.98
2022-10-20T04:50:14.314Z,12.05
2022-10-20T04:52:40.753Z,12.04
2022-10-20T04:55:07.636Z,12.05
2022-10-20T04:57:34.418Z,12.09
2022-10-20T05:00:01.060Z,12.06
2022-10-20T05:02:27.476Z,12.11
2022-10-20T05:04:53.935Z,12.09
2022-10-20T05:07:20.322Z,12.13
2022-10-20T05:09:48.268Z,12.20
2022-10-20T05:14:46.015Z,12.14
2022-10-20T05:17:12.435Z,12.09
2022-10-20T05:19:38.833Z,12.10
2022-10-20T05:22:05.304Z,12.21
2022-10-20T05:24:31.675Z,12.10
2022-10-20T05:26:58.080Z,12.06
2022-10-20T05:29:24.502Z,12.14
2022-10-20T05:31:50.886Z,12.12
2022-10-20T05:34:17.288Z,12.18
2022-10-20T05:36:43.944Z,12.18
2022-10-20T05:39:10.474Z,12.09
2022-10-20T05:41:38.928Z,12.12
2022-10-20T05:44:08.801Z,12.15
2022-10-20T05:46:38.474Z,12.10
2022-10-20T05:49:05.030Z,12.12
2022-10-20T05:51:34.929Z,12.07
2022-10-20T05:54:02.054Z,12.08
2022-10-20T05:56:29.994Z,12.04
2022-10-20T05:58:57.510Z,12.07
2022-10-20T06:01:26.721Z,12.06
2022-10-20T06:03:54.896Z,12.09
2022-10-20T06:06:24.144Z,12.06
2022-10-20T06:08:51.178Z,12.03
2022-10-20T06:11:19.082Z,12.07
2022-10-20T06:13:48.572Z,12.07
2022-10-20T06:16:21.152Z,12.03
2022-10-20T06:18:48.027Z,12.07
2022-10-20T06:21:18.487Z,12.06
2022-10-20T06:23:45.093Z,12.10
2022-10-20T06:26:19.925Z,12.10
2022-10-20T06:28:49.396Z,12.11
2022-10-20T06:31:27.321Z,12.09
2022-10-20T06:33:54.425Z,12.12
2022-10-20T06:36:22.079Z,12.12
2022-10-20T06:38:52.657Z,12.15
2022-10-20T06:41:19.061Z,12.24
2022-10-20T06:43:45.514Z,12.25
2022-10-20T06:46:15.441Z,12.33
2022-10-20T06:48:42.492Z,12.30
2022-10-20T06:51:14.816Z,12.31
2022-10-20T06:53:45.811Z,12.52
2022-10-20T06:56:16.741Z,12.36
2022-10-20T06:58:45.282Z,12.44
2022-10-20T07:01:16.034Z,12.37
2022-10-20T07:03:44.288Z,12.45
2022-10-20T07:06:17.529Z,12.46
2022-10-20T07:08:44.639Z,12.50
2022-10-20T07:11:17.827Z,12.52
2022-10-20T07:13:45.206Z,12.58
2022-10-20T07:16:14.043Z,12.69
2022-10-20T07:18:41.326Z,12.70
2022-10-20T07:21:11.469Z,12.73
2022-10-20T07:23:38.341Z,12.79
2022-10-20T07:26:08.139Z,12.85
2022-10-20T07:28:35.904Z,12.84
2022-10-20T07:31:05.017Z,12.95
2022-10-20T07:33:31.949Z,12.97
2022-10-20T07:35:58.397Z,13.00
2022-10-20T07:38:25.078Z,13.02
2022-10-20T07:40:51.490Z,13.06
2022-10-20T07:43:17.913Z,13.19
2022-10-20T07:45:44.411Z,13.17
2022-10-20T07:48:10.915Z,13.17
2022-10-20T07:50:37.951Z,13.21
2022-10-20T07:53:06.368Z,13.28
2022-10-20T07:55:38.565Z,13.17
2022-10-20T07:58:05.321Z,13.14
2022-10-20T08:00:31.754Z,13.23
2022-10-20T08:02:58.239Z,13.27
2022-10-20T08:05:24.678Z,13.29
2022-10-20T08:07:51.114Z,13.30
2022-10-20T08:10:17.850Z,13.39
2022-10-20T08:12:44.273Z,13.37
2022-10-20T08:15:10.767Z,13.36
2022-10-20T08:17:37.182Z,13.42
2022-10-20T08:20:13.747Z,13.39
2022-10-20T08:22:40.217Z,13.46
2022-10-20T08:25:07.019Z,13.52
2022-10-20T08:27:33.431Z,13.71
2022-10-20T08:30:06.070Z,13.64
2022-10-20T08:32:39.068Z,13.72
2022-10-20T08:35:06.313Z,13.82
2022-10-20T08:37:33.531Z,13.75
2022-10-20T08:40:00.250Z,13.74
2022-10-20T08:42:26.920Z,13.80
2022-10-20T08:44:57.172Z,13.92
2022-10-20T08:47:36.903Z,13.96
2022-10-20T08:50:06.471Z,13.96
2022-10-20T08:52:33.570Z,14.11
2022-10-20T08:55:00.092Z,14.12
2022-10-20T08:57:33.376Z,14.12
2022-10-20T09:00:13.545Z,14.15
2022-10-20T09:02:40.210Z,14.28
2022-10-20T09:05:08.277Z,14.31
2022-10-20T09:07:37.212Z,14.21
2022-10-20T09:10:15.742Z,14.02
2022-10-20T09:12:44.549Z,14.06
2022-10-20T09:15:13.139Z,13.99
2022-10-20T09:17:43.889Z,13.97
2022-10-20T09:20:22.057Z,14.01
2022-10-20T09:22:49.103Z,14.00
2022-10-20T09:25:18.273Z,13.94
2022-10-20T09:27:45.662Z,13.94
2022-10-20T09:30:22.455Z,14.06
2022-10-20T09:32:50.064Z,14.08
2022-10-20T09:35:27.386Z,14.23
2022-10-20T09:38:04.511Z,14.15
2022-10-20T09:40:31.643Z,14.23
2022-10-20T09:43:07.570Z,14.17
2022-10-20T09:45:35.681Z,14.27
2022-10-20T09:48:07.972Z,14.18
2022-10-20T09:50:40.215Z,14.21
2022-10-20T09:53:19.243Z,14.11
2022-10-20T09:55:48.453Z,14.20
2022-10-20T09:58:28.642Z,14.17
2022-10-20T10:01:02.896Z,14.13
2022-10-20T10:03:39.304Z,14.15
2022-10-20T10:06:20.088Z,14.17
2022-10-20T10:08:47.461Z,14.22
2022-10-20T10:11:19.342Z,14.20
2022-10-20T10:13:48.780Z,14.14
2022-10-20T10:16:18.105Z,14.16
2022-10-20T10:18:54.513Z,14.10
2022-10-20T10:21:21.617Z,14.15
2022-10-20T10:24:00.931Z,14.22
2022-10-20T10:26:52.018Z,14.72
2022-10-20T10:29:25.043Z,14.91
2022-10-20T10:32:04.305Z,15.27
2022-10-20T10:34:56.402Z,15.50
2022-10-20T10:37:23.032Z,16.18
2022-10-20T10:39:49.545Z,16.41
2022-10-20T10:43:17.669Z,16.24
2022-10-20T10:45:58.497Z,16.05
2022-10-20T10:48:36.561Z,15.78
2022-10-20T10:51:38.106Z,15.54
2022-10-20T10:54:25.694Z,15.42
2022-10-20T10:56:59.280Z,15.18
2022-10-20T10:59:33.400Z,14.99
2022-10-20T11:02:14.859Z,14.92
2022-10-20T11:05:23.273Z,14.91
2022-10-20T11:08:08.352Z,14.89
2022-10-20T11:11:08.105Z,14.71
2022-10-20T11:14:00.350Z,14.59
2022-10-20T11:16:31.821Z,14.43
2022-10-20T11:19:11.071Z,14.48
2022-10-20T11:21:43.582Z,14.35
2022-10-20T11:24:29.010Z,14.33
2022-10-20T11:27:18.165Z,14.26
2022-10-20T11:29:51.518Z,14.20
2022-10-20T11:32:26.734Z,14.16
2022-10-20T11:35:31.540Z,14.11
2022-10-20T11:38:25.184Z,14.14
2022-10-20T11:41:12.486Z,14.03
2022-10-20T11:44:17.860Z,13.89
2022-10-20T11:46:52.913Z,13.75
2022-10-20T11:49:19.299Z,13.74
2022-10-20T11:52:00.125Z,13.67
2022-10-20T11:54:39.455Z,13.56
2022-10-20T11:57:38.128Z,13.48
2022-10-20T12:00:48.191Z,13.44
2022-10-20T12:03:49.854Z,13.38
2022-10-20T12:06:51.714Z,13.34
2022-10-20T12:09:55.817Z,13.34
2022-10-20T12:12:45.415Z,13.32
2022-10-20T12:15:22.169Z,13.28
2022-10-20T12:17:51.010Z,13.30
2022-10-20T12:20:20.482Z,13.20
2022-10-20T12:22:50.018Z,13.23
2022-10-20T12:25:25.124Z,13.24
2022-10-20T12:28:22.951Z,13.27
2022-10-20T12:30:56.416Z,13.18
2022-10-20T12:33:59.873Z,13.25
2022-10-20T12:36:38.259Z,13.23
2022-10-20T12:39:17.718Z,13.25
2022-10-20T12:42:05.233Z,13.28
2022-10-20T12:44:41.925Z,13.29
2022-10-20T12:47:09.475Z,13.26
2022-10-20T12:49:53.481Z,13.35
2022-10-20T12:52:26.958Z,13.43
2022-10-20T12:55:08.137Z,13.49
2022-10-20T12:57:42.944Z,13.53
2022-10-20T13:00:21.925Z,13.61
2022-10-20T13:02:56.787Z,13.77
2022-10-20T13:05:28.557Z,13.79
2022-10-20T13:08:04.585Z,13.83
2022-10-20T13:10:32.527Z,13.94
2022-10-20T13:13:01.883Z,13.98
2022-10-20T13:15:53.487Z,13.93
2022-10-20T13:18:35.143Z,13.97
2022-10-20T13:21:22.966Z,14.00
2022-10-20T13:24:18.543Z,13.98
2022-10-20T13:26:57.435Z,14.01
2022-10-20T13:29:39.864Z,14.05
2022-10-20T13:33:10.935Z,14.05
2022-10-20T13:35:56.580Z,14.14
2022-10-20T13:38:45.133Z,14.19
2022-10-20T13:41:34.034Z,14.28
2022-10-20T13:44:21.582Z,14.32
2022-10-20T13:46:51.949Z,14.37
2022-10-20T13:49:41.709Z,14.42
2022-10-20T13:52:15.160Z,14.50
2022-10-20T13:54:46.518Z,15.03
2022-10-20T13:57:26.683Z,15.52
2022-10-20T14:00:02.273Z,15.96
2022-10-20T14:02:34.498Z,16.45
2022-10-20T14:05:04.030Z,16.36
2022-10-20T14:07:41.713Z,16.44
2022-10-20T14:10:26.206Z,16.59
2022-10-20T14:12:53.920Z,16.49
2022-10-20T14:15:29.668Z,16.12
2022-10-20T14:18:02.760Z,16.10
2022-10-20T14:20:31.182Z,16.48
2022-10-20T14:22:59.398Z,16.51
2022-10-20T14:25:27.326Z,16.37
2022-10-20T14:27:55.929Z,16.53
2022-10-20T14:30:24.009Z,16.52
2022-10-20T14:32:51.239Z,16.84
2022-10-20T14:35:32.799Z,16.64
2022-10-20T14:38:09.749Z,16.77
2022-10-20T14:40:37.822Z,16.59
2022-10-20T14:43:18.587Z,16.56
2022-10-20T14:45:57.056Z,16.65
2022-10-20T14:48:27.068Z,16.80
2022-10-20T14:50:54.193Z,16.74
2022-10-20T14:53:25.381Z,16.33
2022-10-20T14:55:51.867Z,16.51
2022-10-20T14:58:55.920Z,16.70
2022-10-20T15:01:29.542Z,16.47
2022-10-20T15:04:10.980Z,16.56
2022-10-20T15:06:37.457Z,16.45
2022-10-20T15:09:04.573Z,16.52
2022-10-20T15:11:32.337Z,16.55
2022-10-20T15:14:00.221Z,15.99
2022-10-20T15:16:43.198Z,15.70
2022-10-20T15:19:34.136Z,15.46
2022-10-20T15:22:07.643Z,15.23
2022-10-20T15:24:34.021Z,15.26
2022-10-20T15:27:02.516Z,15.10
2022-10-20T15:29:30.379Z,14.96
2022-10-20T15:31:56.933Z,14.97
2022-10-20T15:34:23.427Z,14.86
2022-10-20T15:36:51.157Z,14.91
2022-10-20T15:39:17.840Z,14.84
2022-10-20T15:41:44.255Z,14.79
2022-10-20T15:44:22.056Z,14.82
2022-10-20T15:46:50.464Z,14.75
2022-10-20T15:49:16.885Z,14.67
2022-10-20T15:51:46.081Z,14.63
2022-10-20T15:54:18.666Z,14.59
2022-10-20T15:56:45.618Z,14.52
2022-10-20T15:59:12.033Z,14.52
2022-10-20T16:01:38.628Z,14.41
2022-10-20T16:04:23.198Z,14.40
2022-10-20T16:06:52.474Z,14.42
2022-10-20T16:09:20.504Z,14.37
2022-10-20T16:11:46.995Z,14.31
2022-10-20T16:14:15.427Z,14.29
2022-10-20T16:16:44.754Z,14.26
2022-10-20T16:19:11.438Z,14.26
2022-10-20T16:21:37.839Z,14.17
2022-10-20T16:24:05.031Z,14.16
2022-10-20T16:26:31.633Z,14.13
2022-10-20T16:28:59.214Z,14.09
2022-10-20T16:31:25.679Z,14.16
2022-10-20T16:33:52.057Z,14.07
2022-10-20T16:36:18.950Z,14.02
2022-10-20T16:38:45.422Z,14.02
2022-10-20T16:41:14.543Z,14.03
2022-10-20T16:43:43.506Z,14.05
2022-10-20T16:46:11.364Z,14.02
2022-10-20T16:48:39.011Z,13.96
2022-10-20T16:51:08.599Z,13.97
2022-10-20T16:53:35.580Z,13.99
2022-10-20T16:56:02.356Z,14.10
2022-10-20T16:58:28.804Z,14.01
2022-10-20T17:01:10.982Z,14.04
2022-10-20T17:06:11.128Z,14.00
2022-10-20T17:08:38.195Z,13.98
2022-10-20T17:11:29.275Z,13.98
2022-10-20T17:13:56.273Z,13.97
2022-10-20T17:16:32.091Z,14.02
2022-10-20T17:19:00.443Z,14.07
2022-10-20T17:21:28.038Z,14.00
2022-10-20T17:23:54.585Z,13.98
2022-10-20T17:26:24.027Z,14.08
2022-10-20T17:28:53.110Z,13.94
2022-10-20T17:31:19.703Z,13.95
2022-10-20T17:33:46.816Z,13.97
2022-10-20T17:36:13.854Z,13.92
2022-10-20T17:38:41.774Z,13.91
2022-10-20T17:41:10.764Z,13.89
2022-10-20T17:43:37.215Z,13.89
2022-10-20T17:46:09.290Z,13.85
2022-10-20T17:48:36.894Z,13.94
2022-10-20T17:51:07.478Z,13.89
2022-10-20T17:53:35.536Z,13.91
2022-10-20T17:56:07.662Z,13.85
2022-10-20T17:58:34.589Z,13.87
2022-10-20T18:01:13.347Z,13.98
2022-10-20T18:03:41.216Z,13.92
2022-10-20T18:06:19.581Z,13.90
2022-10-20T18:08:46.841Z,13.90
2022-10-20T18:11:16.649Z,13.91
2022-10-20T18:13:43.364Z,13.88
2022-10-20T18:16:12.865Z,13.89
2022-10-20T18:18:39.605Z,13.88
2022-10-20T18:21:07.677Z,13.90
2022-10-20T18:23:36.437Z,13.93
2022-10-20T18:26:08.563Z,13.93
2022-10-20T18:28:35.673Z,13.92
2022-10-20T18:31:11.322Z,13.91
2022-10-20T18:33:38.146Z,13.93
2022-10-20T18:36:06.746Z,14.07
2022-10-20T18:38:36.565Z,14.05
2022-10-20T18:41:07.821Z,14.03
2022-10-20T18:43:34.724Z,14.04
2022-10-20T18:46:02.909Z,14.08
2022-10-20T18:48:30.856Z,14.03
2022-10-20T18:50:59.329Z,14.03
2022-10-20T18:53:27.719Z,14.07
2022-10-20T18:56:05.862Z,14.08
2022-10-20T18:58:34.958Z,14.08
2022-10-20T19:01:04.986Z,14.10
2022-10-20T19:03:33.158Z,14.17
2022-10-20T19:06:12.207Z,14.24
2022-10-20T19:08:39.729Z,14.18
2022-10-20T19:11:10.184Z,14.10
2022-10-20T19:13:37.063Z,14.09
2022-10-20T19:16:08.715Z,14.10
2022-10-20T19:18:35.597Z,14.04
2022-10-20T19:21:04.645Z,14.10
2022-10-20T19:23:32.678Z,14.16
2022-10-20T19:26:09.853Z,14.13
2022-10-20T19:28:40.938Z,14.10
2022-10-20T19:31:21.298Z,14.05
2022-10-20T19:33:52.093Z,14.01
2022-10-20T19:36:19.928Z,14.18
2022-10-20T19:38:46.996Z,14.06
2022-10-20T19:41:13.749Z,14.05
2022-10-20T19:43:40.296Z,13.99
2022-10-20T19:46:08.358Z,13.99
2022-10-20T19:48:35.876Z,13.96
2022-10-20T19:51:03.060Z,13.96
2022-10-20T19:53:29.753Z,14.05
2022-10-20T19:55:56.173Z,13.99
2022-10-20T19:58:22.668Z,13.92
2022-10-20T20:00:57.338Z,13.89
2022-10-20T20:03:24.289Z,13.91
2022-10-20T20:06:18.264Z,13.89
2022-10-20T20:08:46.892Z,13.89
2022-10-20T20:11:23.582Z,13.86
2022-10-20T20:13:51.586Z,13.86
2022-10-20T20:16:18.390Z,13.88
2022-10-20T20:18:44.916Z,13.84
2022-10-20T20:21:11.438Z,13.90
2022-10-20T20:23:58.310Z,13.95
2022-10-20T20:26:25.108Z,13.99
2022-10-20T20:28:53.378Z,13.96
2022-10-20T20:31:20.754Z,13.97
2022-10-20T20:33:47.446Z,13.93
2022-10-20T20:36:13.942Z,13.94
2022-10-20T20:38:41.397Z,13.91
2022-10-20T20:41:12.039Z,13.95
2022-10-20T20:43:38.832Z,13.96
2022-10-20T20:46:12.129Z,13.92
2022-10-20T20:48:38.870Z,13.93
2022-10-20T20:51:06.264Z,13.99
2022-10-20T20:53:37.980Z,14.05
2022-10-20T20:56:09.786Z,13.98
2022-10-20T20:58:37.061Z,13.98
2022-10-20T21:01:12.621Z,13.98
2022-10-20T21:03:39.895Z,14.03
2022-10-20T21:06:08.445Z,13.94
2022-10-20T21:08:37.400Z,13.93
2022-10-20T21:11:09.126Z,14.01
2022-10-20T21:13:36.849Z,14.04
2022-10-20T21:16:19.577Z,14.11
2022-10-20T21:18:48.435Z,14.10
2022-10-20T21:21:20.727Z,14.15
2022-10-20T21:23:47.405Z,14.12
2022-10-20T21:26:15.899Z,14.15
2022-10-20T21:28:43.310Z,14.22
2022-10-20T21:31:13.412Z,14.25
2022-10-20T21:33:40.452Z,14.30
2022-10-20T21:36:13.225Z,14.25
2022-10-20T21:38:40.853Z,14.27
2022-10-20T21:41:10.150Z,14.35
2022-10-20T21:43:38.140Z,14.38
2022-10-20T21:46:16.124Z,14.34
2022-10-20T21:48:44.231Z,14.32
2022-10-20T21:51:13.614Z,14.31
2022-10-20T21:53:40.479Z,14.36
2022-10-20T21:56:07.677Z,14.33
2022-10-20T21:58:35.215Z,14.29
2022-10-20T22:01:12.692Z,14.30
2022-10-20T22:03:39.742Z,14.32
2022-10-20T22:06:07.933Z,14.37
2022-10-20T22:08:35.981Z,14.34
2022-10-20T22:11:07.658Z,14.42
2022-10-20T22:13:34.661Z,14.41
2022-10-20T22:16:01.640Z,14.43
2022-10-20T22:18:28.405Z,14.52
2022-10-20T22:20:54.868Z,14.49
2022-10-20T22:23:21.225Z,14.49
2022-10-20T22:25:52.035Z,14.52
2022-10-20T22:28:18.547Z,14.60
2022-10-20T22:30:44.987Z,14.57
2022-10-20T22:33:11.391Z,14.64
2022-10-20T22:35:37.753Z,14.64
2022-10-20T22:38:04.190Z,14.68
2022-10-20T22:40:30.559Z,14.70
2022-10-20T22:42:57.417Z,14.65
2022-10-20T22:45:23.842Z,14.64
2022-10-20T22:47:50.291Z,14.64
2022-10-20T22:50:17.009Z,14.62
2022-10-20T22:52:43.455Z,14.58
2022-10-20T22:55:11.992Z,14.62
2022-10-20T22:57:38.399Z,14.54
2022-10-20T23:00:07.039Z,14.52
2022-10-20T23:02:33.455Z,14.43
2022-10-20T23:04:59.870Z,14.42
2022-10-20T23:07:26.235Z,14.47
2022-10-20T23:09:52.675Z,14.43
2022-10-20T23:12:19.072Z,14.38
2022-10-20T23:14:45.556Z,14.33
2022-10-20T23:17:11.975Z,14.32
2022-10-20T23:19:38.328Z,14.29
2022-10-20T23:22:04.801Z,14.28
2022-10-20T23:24:31.173Z,14.27
2022-10-20T23:26:57.910Z,14.28
2022-10-20T23:29:24.474Z,14.26
2022-10-20T23:31:50.895Z,14.35
2022-10-20T23:34:17.277Z,14.26
2022-10-20T23:36:43.714Z,14.24
2022-10-20T23:39:10.222Z,14.25
2022-10-20T23:41:36.666Z,14.27
2022-10-20T23:44:03.055Z,14.26
2022-10-20T23:46:32.252Z,14.30
2022-10-20T23:48:59.239Z,14.33
2022-10-20T23:51:25.808Z,14.30
2022-10-20T23:53:52.353Z,14.33
2022-10-20T23:56:18.843Z,14.37
2022-10-20T23:58:45.262Z,14.41
